createdAt,value
2019-03-24T00:00:01.787Z,10.70
2019-03-24T00:02:30.358Z,10.60
2019-03-24T00:04:58.986Z,10.47
2019-03-24T00:07:27.498Z,10.44
2019-03-24T00:09:56.129Z,10.50
2019-03-24T00:12:24.827Z,10.39
2019-03-24T00:14:53.392Z,10.44
2019-03-24T00:17:22.044Z,10.46
2019-03-24T00:19:50.537Z,10.36
2019-03-24T00:22:19.685Z,10.38
2019-03-24T00:24:48.304Z,10.36
2019-03-24T00:27:16.808Z,10.39
2019-03-24T00:29:45.434Z,10.44
2019-03-24T00:32:14.039Z,10.56
2019-03-24T00:34:42.735Z,10.51
2019-03-24T00:37:11.206Z,10.43
2019-03-24T00:39:39.755Z,10.35
2019-03-24T00:42:08.354Z,10.29
2019-03-24T00:44:36.902Z,10.17
2019-03-24T00:47:05.476Z,10.04
2019-03-24T00:49:34.142Z,10.06
2019-03-24T00:52:02.718Z,10.01
2019-03-24T00:54:31.214Z,10.03
2019-03-24T00:56:59.855Z,9.88
2019-03-24T00:59:28.400Z,9.87
2019-03-24T01:01:57.010Z,9.85
2019-03-24T01:04:25.595Z,9.95
2019-03-24T01:06:54.625Z,10.11
2019-03-24T01:09:23.577Z,10.24
2019-03-24T01:11:52.171Z,10.11
2019-03-24T01:14:21.153Z,10.05
2019-03-24T01:16:49.680Z,10.00
2019-03-24T01:19:18.269Z,10.01
2019-03-24T01:21:46.907Z,9.93
2019-03-24T01:24:15.412Z,9.77
2019-03-24T01:26:43.935Z,9.72
2019-03-24T01:29:12.614Z,9.71
2019-03-24T01:31:41.480Z,9.69
2019-03-24T01:34:10.465Z,9.73
2019-03-24T01:36:39.284Z,9.85
2019-03-24T01:39:08.500Z,9.85
2019-03-24T01:41:37.025Z,9.83
2019-03-24T01:44:05.635Z,9.90
2019-03-24T01:46:34.222Z,9.81
2019-03-24T01:49:02.734Z,9.71
2019-03-24T01:51:31.316Z,9.82
2019-03-24T01:53:59.971Z,9.73
2019-03-24T01:56:28.482Z,9.74
2019-03-24T01:58:57.025Z,9.76
2019-03-24T02:01:25.757Z,9.67
2019-03-24T02:03:54.319Z,9.61
2019-03-24T02:06:22.836Z,9.70
2019-03-24T02:08:52.161Z,9.63
2019-03-24T02:11:20.884Z,9.59
2019-03-24T02:13:49.421Z,9.55
2019-03-24T02:16:18.046Z,9.53
2019-03-24T02:18:46.656Z,9.67
2019-03-24T02:21:15.246Z,9.71
2019-03-24T02:23:43.824Z,9.59
2019-03-24T02:26:12.307Z,9.58
2019-03-24T02:28:40.855Z,9.45
2019-03-24T02:31:09.371Z,9.31
2019-03-24T02:33:37.936Z,9.19
2019-03-24T02:36:06.454Z,9.19
2019-03-24T02:38:35.072Z,9.29
2019-03-24T02:41:03.723Z,9.34
2019-03-24T02:43:32.325Z,9.40
2019-03-24T02:46:00.875Z,9.49
2019-03-24T02:48:29.510Z,9.53
2019-03-24T02:50:58.011Z,9.56
2019-03-24T02:53:26.635Z,9.69
2019-03-24T02:55:55.210Z,9.72
2019-03-24T02:58:23.840Z,9.63
2019-03-24T03:00:53.245Z,9.63
2019-03-24T03:03:21.771Z,9.40
2019-03-24T03:05:50.615Z,9.29
2019-03-24T03:08:19.195Z,9.27
2019-03-24T03:10:47.791Z,9.18
2019-03-24T03:13:16.627Z,9.10
2019-03-24T03:15:45.226Z,9.20
2019-03-24T03:18:13.777Z,9.31
2019-03-24T03:20:42.373Z,9.38
2019-03-24T03:23:10.992Z,9.45
2019-03-24T03:25:39.653Z,9.55
2019-03-24T03:28:08.226Z,9.82
2019-03-24T03:30:36.860Z,9.88
2019-03-24T03:33:05.536Z,9.68
2019-03-24T03:35:34.110Z,9.45
2019-03-24T03:38:02.599Z,9.40
2019-03-24T03:40:31.405Z,9.45
2019-03-24T03:42:59.918Z,9.37
2019-03-24T03:45:29.398Z,9.24
2019-03-24T03:47:57.933Z,9.19
2019-03-24T03:50:26.565Z,9.12
2019-03-24T03:52:55.337Z,9.09
2019-03-24T03:55:24.316Z,9.16
2019-03-24T03:57:52.926Z,9.17
2019-03-24T04:00:24.487Z,9.25
2019-03-24T04:02:52.974Z,9.28
2019-03-24T04:05:21.417Z,9.36
2019-03-24T04:07:49.960Z,9.35
2019-03-24T04:10:18.534Z,9.21
2019-03-24T04:12:47.055Z,9.07
2019-03-24T04:15:15.656Z,9.00
2019-03-24T04:17:44.238Z,8.90
2019-03-24T04:20:12.945Z,8.96
2019-03-24T04:22:41.774Z,9.04
2019-03-24T04:25:10.487Z,8.95
2019-03-24T04:27:39.224Z,8.94
2019-03-24T04:30:08.287Z,9.00
2019-03-24T04:32:36.883Z,8.92
2019-03-24T04:35:07.473Z,8.86
2019-03-24T04:37:36.052Z,9.01
2019-03-24T04:40:06.544Z,9.10
2019-03-24T04:42:35.143Z,8.99
2019-03-24T04:45:03.925Z,8.88
2019-03-24T04:47:32.471Z,8.78
2019-03-24T04:50:00.981Z,8.73
2019-03-24T04:52:29.535Z,8.71
2019-03-24T04:54:58.046Z,8.66
2019-03-24T04:57:26.819Z,8.54
2019-03-24T04:59:56.323Z,8.50
2019-03-24T05:02:25.987Z,8.59
2019-03-24T05:04:54.488Z,8.60
2019-03-24T05:07:23.665Z,8.59
2019-03-24T05:09:54.437Z,8.65
2019-03-24T05:12:22.755Z,8.67
2019-03-24T05:14:51.267Z,8.75
2019-03-24T05:17:27.059Z,8.75
2019-03-24T05:19:50.178Z,8.58
2019-03-24T05:22:19.046Z,8.52
2019-03-24T05:24:47.567Z,8.35
2019-03-24T05:27:16.434Z,8.32
2019-03-24T05:29:45.048Z,8.16
2019-03-24T05:32:13.590Z,8.09
2019-03-24T05:34:42.070Z,8.22
2019-03-24T05:37:10.591Z,8.24
2019-03-24T05:39:39.227Z,8.29
2019-03-24T05:42:07.821Z,8.32
2019-03-24T05:44:36.439Z,8.33
2019-03-24T05:47:04.978Z,8.34
2019-03-24T05:49:35.039Z,8.53
2019-03-24T05:52:03.515Z,8.53
2019-03-24T05:54:32.040Z,8.32
2019-03-24T05:57:00.615Z,8.28
2019-03-24T05:59:29.253Z,8.26
2019-03-24T06:01:57.894Z,8.19
2019-03-24T06:04:27.023Z,8.20
2019-03-24T06:06:55.549Z,8.07
2019-03-24T06:09:24.094Z,8.07
2019-03-24T06:11:52.874Z,8.21
2019-03-24T06:14:21.448Z,8.31
2019-03-24T06:16:50.095Z,8.43
2019-03-24T06:19:18.664Z,8.49
2019-03-24T06:21:47.209Z,8.49
2019-03-24T06:24:15.664Z,8.37
2019-03-24T06:26:44.232Z,8.35
2019-03-24T06:29:12.855Z,8.26
2019-03-24T06:31:41.479Z,8.04
2019-03-24T06:34:09.997Z,7.82
2019-03-24T06:36:38.547Z,7.71
2019-03-24T06:39:08.253Z,7.78
2019-03-24T06:41:36.874Z,7.84
2019-03-24T06:44:05.504Z,8.03
2019-03-24T06:46:34.055Z,8.16
2019-03-24T06:49:02.555Z,8.21
2019-03-24T06:51:31.148Z,8.35
2019-03-24T06:53:59.785Z,8.58
2019-03-24T06:56:28.465Z,8.80
2019-03-24T06:58:56.980Z,9.37
2019-03-24T07:01:25.621Z,9.37
2019-03-24T07:03:54.142Z,12.09
2019-03-24T07:06:22.822Z,12.88
2019-03-24T07:08:51.409Z,12.22
2019-03-24T07:11:20.052Z,11.50
2019-03-24T07:13:48.754Z,11.08
2019-03-24T07:16:18.563Z,11.15
2019-03-24T07:18:47.348Z,10.95
2019-03-24T07:21:16.029Z,11.61
2019-03-24T07:23:44.616Z,12.57
2019-03-24T07:26:13.099Z,13.30
2019-03-24T07:28:41.675Z,13.37
2019-03-24T07:31:10.267Z,13.25
2019-03-24T07:33:39.206Z,13.41
2019-03-24T07:36:07.797Z,13.21
2019-03-24T07:38:36.383Z,13.05
2019-03-24T07:41:04.999Z,12.79
2019-03-24T07:43:33.536Z,13.07
2019-03-24T07:46:02.170Z,13.16
2019-03-24T07:48:30.815Z,13.46
2019-03-24T07:50:59.424Z,13.76
2019-03-24T07:53:27.958Z,13.95
2019-03-24T07:55:56.581Z,14.21
2019-03-24T07:58:25.365Z,14.36
2019-03-24T08:00:53.940Z,14.55
2019-03-24T08:03:22.575Z,14.42
2019-03-24T08:05:51.234Z,14.60
2019-03-24T08:08:19.855Z,14.89
2019-03-24T08:10:48.492Z,15.02
2019-03-24T08:13:17.076Z,15.16
2019-03-24T08:15:45.683Z,14.93
2019-03-24T08:18:14.316Z,14.99
2019-03-24T08:20:42.994Z,15.23
2019-03-24T08:23:11.589Z,15.18
2019-03-24T08:25:40.159Z,14.98
2019-03-24T08:28:08.684Z,14.72
2019-03-24T08:30:37.296Z,14.57
2019-03-24T08:33:05.945Z,14.58
2019-03-24T08:35:34.549Z,14.59
2019-03-24T08:38:03.178Z,14.54
2019-03-24T08:40:31.805Z,14.68
2019-03-24T08:43:00.704Z,14.46
2019-03-24T08:45:30.531Z,14.49
2019-03-24T08:47:59.850Z,14.51
2019-03-24T08:50:28.621Z,14.53
2019-03-24T08:52:57.510Z,14.64
2019-03-24T08:55:26.099Z,14.83
2019-03-24T08:57:54.743Z,15.09
2019-03-24T09:00:30.519Z,15.30
2019-03-24T09:02:53.678Z,15.18
2019-03-24T09:05:22.265Z,15.58
2019-03-24T09:07:50.865Z,15.55
2019-03-24T09:10:19.753Z,15.66
2019-03-24T09:12:48.356Z,15.74
2019-03-24T09:15:17.042Z,15.62
2019-03-24T09:17:45.695Z,15.59
2019-03-24T09:20:15.033Z,15.50
2019-03-24T09:22:43.676Z,15.64
2019-03-24T09:25:12.551Z,15.87
2019-03-24T09:27:41.234Z,16.13
2019-03-24T09:30:31.767Z,16.23
2019-03-24T09:33:00.496Z,16.36
2019-03-24T09:35:29.894Z,15.99
2019-03-24T09:37:58.730Z,15.91
2019-03-24T09:40:29.192Z,16.09
2019-03-24T09:43:00.429Z,16.16
2019-03-24T09:45:30.347Z,16.44
2019-03-24T09:47:59.169Z,16.34
2019-03-24T09:50:27.799Z,16.20
2019-03-24T09:52:56.506Z,15.92
2019-03-24T09:55:25.221Z,16.02
2019-03-24T09:57:53.823Z,16.23
2019-03-24T10:00:22.509Z,16.70
2019-03-24T10:02:51.414Z,16.70
2019-03-24T10:05:19.945Z,16.89
2019-03-24T10:07:48.578Z,16.85
2019-03-24T10:10:17.174Z,16.85
2019-03-24T10:12:45.844Z,16.49
2019-03-24T10:15:14.451Z,15.90
2019-03-24T10:17:43.422Z,15.73
2019-03-24T10:20:12.348Z,15.33
2019-03-24T10:22:40.959Z,14.95
2019-03-24T10:25:09.759Z,15.22
2019-03-24T10:27:38.481Z,15.30
2019-03-24T10:30:07.768Z,15.90
2019-03-24T10:32:36.366Z,16.33
2019-03-24T10:35:06.905Z,16.63
2019-03-24T10:37:35.658Z,16.95
2019-03-24T10:40:05.404Z,17.29
2019-03-24T10:42:33.981Z,17.43
2019-03-24T10:45:03.955Z,17.08
2019-03-24T10:47:33.226Z,16.79
2019-03-24T10:50:01.849Z,16.47
2019-03-24T10:52:30.444Z,16.06
2019-03-24T10:54:59.148Z,15.18
2019-03-24T10:57:27.746Z,14.97
2019-03-24T10:59:56.307Z,14.99
2019-03-24T11:02:24.822Z,15.30
2019-03-24T11:04:53.374Z,15.63
2019-03-24T11:07:21.968Z,15.78
2019-03-24T11:09:50.591Z,15.78
2019-03-24T11:12:19.217Z,15.61
2019-03-24T11:14:47.835Z,15.82
2019-03-24T11:17:16.327Z,15.48
2019-03-24T11:19:44.967Z,15.41
2019-03-24T11:22:13.502Z,15.75
2019-03-24T11:24:42.135Z,16.07
2019-03-24T11:27:10.720Z,16.32
2019-03-24T11:29:39.387Z,16.47
2019-03-24T11:32:08.029Z,16.75
2019-03-24T11:34:36.619Z,16.44
2019-03-24T11:37:05.252Z,15.93
2019-03-24T11:39:34.413Z,15.63
2019-03-24T11:42:03.085Z,15.54
2019-03-24T11:44:31.783Z,15.73
2019-03-24T11:47:00.328Z,15.83
2019-03-24T11:49:28.876Z,15.78
2019-03-24T11:51:57.468Z,15.81
2019-03-24T11:54:26.099Z,16.11
2019-03-24T11:56:54.690Z,16.09
2019-03-24T11:59:23.680Z,16.08
2019-03-24T12:01:52.318Z,15.71
2019-03-24T12:04:22.425Z,15.66
2019-03-24T12:06:51.016Z,15.48
2019-03-24T12:09:19.740Z,15.43
2019-03-24T12:11:48.294Z,15.78
2019-03-24T12:14:17.015Z,15.69
2019-03-24T12:16:45.607Z,15.65
2019-03-24T12:19:14.292Z,15.69
2019-03-24T12:21:42.854Z,15.83
2019-03-24T12:24:11.463Z,16.03
2019-03-24T12:26:39.994Z,16.02
2019-03-24T12:29:08.849Z,16.10
2019-03-24T12:31:37.478Z,15.90
2019-03-24T12:34:06.319Z,15.61
2019-03-24T12:36:35.627Z,15.45
2019-03-24T12:39:05.318Z,15.09
2019-03-24T12:41:33.955Z,14.84
2019-03-24T12:44:02.915Z,14.78
2019-03-24T12:46:31.550Z,14.91
2019-03-24T12:49:00.130Z,15.13
2019-03-24T12:51:28.640Z,14.73
2019-03-24T12:53:57.534Z,14.15
2019-03-24T12:56:26.140Z,14.18
2019-03-24T12:58:54.658Z,14.24
2019-03-24T13:01:23.422Z,14.20
2019-03-24T13:03:52.110Z,13.71
2019-03-24T13:06:20.804Z,13.71
2019-03-24T13:08:49.558Z,13.57
2019-03-24T13:11:18.158Z,13.57
2019-03-24T13:13:46.719Z,13.49
2019-03-24T13:16:15.241Z,13.73
2019-03-24T13:18:43.972Z,13.68
2019-03-24T13:21:12.633Z,13.66
2019-03-24T13:23:41.221Z,13.46
2019-03-24T13:26:09.930Z,13.39
2019-03-24T13:28:38.563Z,13.57
2019-03-24T13:31:07.187Z,13.46
2019-03-24T13:33:36.801Z,13.55
2019-03-24T13:36:07.177Z,13.62
2019-03-24T13:38:36.168Z,13.81
2019-03-24T13:41:04.755Z,13.87
2019-03-24T13:43:33.399Z,13.84
2019-03-24T13:46:01.895Z,13.77
2019-03-24T13:48:30.744Z,13.69
2019-03-24T13:50:59.331Z,13.85
2019-03-24T13:53:27.904Z,13.59
2019-03-24T13:55:56.690Z,13.72
2019-03-24T13:58:25.353Z,13.84
2019-03-24T14:00:53.998Z,13.78
2019-03-24T14:03:22.667Z,13.47
2019-03-24T14:05:51.345Z,13.47
2019-03-24T14:08:20.432Z,13.52
2019-03-24T14:10:49.097Z,13.85
2019-03-24T14:13:17.562Z,14.02
2019-03-24T14:15:46.158Z,13.92
2019-03-24T14:18:14.691Z,13.97
2019-03-24T14:20:44.070Z,13.75
2019-03-24T14:23:12.760Z,13.99
2019-03-24T14:25:41.546Z,14.15
2019-03-24T14:28:10.124Z,14.30
2019-03-24T14:30:41.028Z,14.12
2019-03-24T14:33:09.686Z,13.81
2019-03-24T14:35:38.239Z,13.82
2019-03-24T14:38:06.829Z,13.95
2019-03-24T14:40:35.461Z,13.97
2019-03-24T14:43:04.150Z,14.14
2019-03-24T14:45:32.808Z,14.32
2019-03-24T14:48:01.924Z,14.21
2019-03-24T14:50:30.607Z,14.12
2019-03-24T14:52:59.178Z,14.13
2019-03-24T14:55:27.835Z,13.99
2019-03-24T14:57:56.594Z,13.86
2019-03-24T15:00:36.471Z,13.91
2019-03-24T15:03:05.168Z,13.92
2019-03-24T15:05:33.758Z,14.12
2019-03-24T15:08:03.790Z,13.96
2019-03-24T15:10:32.444Z,14.00
2019-03-24T15:13:01.112Z,14.22
2019-03-24T15:15:29.733Z,13.84
2019-03-24T15:17:58.310Z,13.37
2019-03-24T15:20:26.887Z,13.37
2019-03-24T15:22:55.526Z,13.42
2019-03-24T15:25:24.116Z,13.52
2019-03-24T15:27:52.858Z,13.75
2019-03-24T15:30:21.514Z,13.46
2019-03-24T15:32:50.216Z,13.34
2019-03-24T15:35:18.818Z,13.38
2019-03-24T15:37:47.423Z,13.56
2019-03-24T15:40:16.310Z,13.59
2019-03-24T15:42:44.967Z,13.53
2019-03-24T15:45:13.652Z,13.47
2019-03-24T15:47:42.268Z,13.39
2019-03-24T15:50:11.276Z,13.48
2019-03-24T15:52:39.975Z,13.57
2019-03-24T15:55:08.859Z,13.68
2019-03-24T15:57:37.490Z,13.72
2019-03-24T16:00:08.564Z,13.71
2019-03-24T16:02:37.194Z,13.32
2019-03-24T16:05:07.026Z,13.17
2019-03-24T16:07:35.577Z,12.79
2019-03-24T16:10:06.679Z,12.93
2019-03-24T16:12:35.453Z,12.98
2019-03-24T16:15:07.905Z,12.98
2019-03-24T16:17:36.597Z,12.83
2019-03-24T16:20:07.631Z,12.85
2019-03-24T16:22:36.222Z,12.77
2019-03-24T16:25:07.039Z,12.78
2019-03-24T16:27:36.761Z,12.94
2019-03-24T16:30:07.250Z,12.80
2019-03-24T16:32:35.833Z,12.61
2019-03-24T16:35:05.646Z,12.58
2019-03-24T16:37:34.219Z,12.66
2019-03-24T16:40:02.846Z,12.89
2019-03-24T16:42:31.542Z,13.17
2019-03-24T16:45:00.415Z,13.21
2019-03-24T16:47:29.054Z,12.79
2019-03-24T16:49:57.667Z,12.64
2019-03-24T16:52:26.287Z,12.31
2019-03-24T16:54:54.954Z,12.13
2019-03-24T16:57:23.544Z,12.27
2019-03-24T16:59:52.308Z,12.20
2019-03-24T17:02:20.905Z,12.08
2019-03-24T17:04:49.488Z,11.90
2019-03-24T17:07:18.269Z,11.99
2019-03-24T17:09:46.865Z,11.98
2019-03-24T17:12:15.536Z,11.78
2019-03-24T17:14:44.167Z,11.91
2019-03-24T17:17:13.038Z,12.07
2019-03-24T17:19:41.908Z,12.04
2019-03-24T17:22:10.462Z,12.19
2019-03-24T17:24:39.002Z,12.22
2019-03-24T17:27:07.718Z,11.98
2019-03-24T17:29:36.307Z,11.84
2019-03-24T17:32:04.955Z,11.63
2019-03-24T17:34:33.617Z,11.46
2019-03-24T17:37:02.223Z,11.16
2019-03-24T17:39:30.862Z,11.00
2019-03-24T17:41:59.536Z,10.95
2019-03-24T17:44:28.079Z,11.05
2019-03-24T17:46:56.707Z,10.96
2019-03-24T17:49:25.384Z,10.98
2019-03-24T17:52:00.719Z,10.93
2019-03-24T17:54:24.229Z,11.03
2019-03-24T17:56:52.789Z,11.20
2019-03-24T17:59:21.325Z,11.20
2019-03-24T18:01:49.961Z,10.98
2019-03-24T18:04:24.837Z,10.78
2019-03-24T18:06:48.968Z,10.78
2019-03-24T18:09:17.545Z,10.71
2019-03-24T18:11:46.132Z,10.63
2019-03-24T18:14:15.043Z,10.61
2019-03-24T18:16:43.681Z,10.51
2019-03-24T18:19:13.257Z,10.39
2019-03-24T18:21:41.921Z,10.16
2019-03-24T18:24:10.482Z,10.15
2019-03-24T18:26:39.079Z,9.90
2019-03-24T18:29:07.904Z,10.06
2019-03-24T18:31:36.535Z,10.34
2019-03-24T18:34:05.187Z,10.42
2019-03-24T18:36:33.847Z,10.13
2019-03-24T18:39:02.369Z,9.88
2019-03-24T18:41:30.953Z,9.85
2019-03-24T18:43:59.727Z,9.62
2019-03-24T18:46:28.423Z,9.56
2019-03-24T18:48:58.349Z,9.52
2019-03-24T18:51:27.015Z,9.32
2019-03-24T18:53:55.719Z,9.23
2019-03-24T18:56:24.278Z,9.21
2019-03-24T18:58:52.810Z,9.15
2019-03-24T19:01:21.353Z,9.08
2019-03-24T19:03:50.074Z,9.35
2019-03-24T19:06:18.648Z,9.80
2019-03-24T19:08:47.271Z,9.58
2019-03-24T19:11:15.877Z,9.48
2019-03-24T19:16:30.117Z,9.14
2019-03-24T19:18:58.631Z,8.95
2019-03-24T19:21:27.187Z,8.85
2019-03-24T19:23:56.006Z,8.70
2019-03-24T19:26:24.657Z,8.67
2019-03-24T19:28:53.303Z,8.59
2019-03-24T19:31:21.916Z,8.65
2019-03-24T19:33:50.519Z,8.71
2019-03-24T19:38:59.822Z,9.08
2019-03-24T19:41:28.477Z,9.37
2019-03-24T19:43:57.053Z,9.21
2019-03-24T19:46:27.566Z,8.86
2019-03-24T19:48:56.660Z,8.71
2019-03-24T19:51:25.307Z,8.71
2019-03-24T19:53:53.966Z,8.44
2019-03-24T19:56:22.926Z,8.38
2019-03-24T19:58:51.556Z,8.48
2019-03-24T20:01:20.214Z,8.52
2019-03-24T20:03:48.707Z,8.39
2019-03-24T20:06:17.274Z,8.27
2019-03-24T20:08:46.071Z,8.50
2019-03-24T20:11:14.848Z,8.50
2019-03-24T20:13:43.442Z,8.73
2019-03-24T20:16:12.411Z,9.00
2019-03-24T20:18:40.932Z,8.79
2019-03-24T20:21:09.570Z,8.46
2019-03-24T20:23:38.082Z,8.43
2019-03-24T20:26:06.698Z,8.36
2019-03-24T20:28:35.286Z,8.21
2019-03-24T20:31:03.908Z,8.03
2019-03-24T20:33:32.689Z,8.04
2019-03-24T20:36:01.229Z,8.04
2019-03-24T20:38:29.864Z,8.06
2019-03-24T20:40:58.409Z,8.09
2019-03-24T20:43:27.830Z,8.17
2019-03-24T20:45:56.516Z,8.30
2019-03-24T20:48:25.182Z,8.38
2019-03-24T20:50:53.801Z,8.68
2019-03-24T20:53:22.354Z,8.64
2019-03-24T20:55:50.931Z,8.12
2019-03-24T20:58:19.474Z,7.79
2019-03-24T21:00:48.082Z,7.55
2019-03-24T21:03:16.691Z,7.41
2019-03-24T21:05:45.279Z,7.44
2019-03-24T21:08:13.838Z,7.47
2019-03-24T21:10:42.533Z,7.55
2019-03-24T21:13:11.276Z,7.73
2019-03-24T21:15:39.915Z,7.94
2019-03-24T21:18:08.521Z,8.08
2019-03-24T21:20:37.161Z,8.12
2019-03-24T21:23:06.637Z,8.16
2019-03-24T21:25:35.278Z,8.39
2019-03-24T21:28:04.110Z,8.22
2019-03-24T21:30:37.775Z,8.00
2019-03-24T21:33:06.519Z,7.88
2019-03-24T21:35:35.120Z,7.55
2019-03-24T21:38:03.944Z,7.06
2019-03-24T21:40:32.512Z,6.83
2019-03-24T21:43:01.078Z,6.82
2019-03-24T21:45:29.906Z,6.99
2019-03-24T21:47:58.677Z,7.10
2019-03-24T21:50:27.308Z,7.49
2019-03-24T21:52:55.771Z,7.67
2019-03-24T21:55:25.040Z,7.89
2019-03-24T21:57:57.688Z,7.94
2019-03-24T22:00:32.570Z,7.90
2019-03-24T22:03:01.116Z,7.90
2019-03-24T22:05:30.303Z,7.67
2019-03-24T22:07:58.910Z,7.54
2019-03-24T22:10:27.520Z,7.51
2019-03-24T22:12:56.123Z,7.27
2019-03-24T22:15:24.891Z,7.12
2019-03-24T22:17:53.440Z,6.95
2019-03-24T22:20:22.089Z,7.00
2019-03-24T22:22:50.835Z,6.96
2019-03-24T22:25:19.454Z,7.29
2019-03-24T22:27:48.079Z,7.51
2019-03-24T22:30:16.954Z,7.40
2019-03-24T22:32:45.487Z,7.42
2019-03-24T22:35:14.131Z,7.66
2019-03-24T22:37:42.641Z,7.94
2019-03-24T22:40:11.531Z,7.70
2019-03-24T22:42:40.060Z,7.55
2019-03-24T22:45:08.992Z,7.29
2019-03-24T22:47:37.677Z,7.23
2019-03-24T22:50:08.118Z,7.26
2019-03-24T22:52:37.127Z,7.32
2019-03-24T22:55:10.056Z,7.31
2019-03-24T22:57:38.795Z,7.38
2019-03-24T23:00:11.926Z,7.53
2019-03-24T23:02:40.460Z,7.45
2019-03-24T23:05:09.309Z,7.37
2019-03-24T23:07:37.850Z,7.30
2019-03-24T23:10:06.523Z,7.41
2019-03-24T23:12:35.148Z,7.62
2019-03-24T23:15:05.337Z,7.55
2019-03-24T23:17:33.959Z,7.27
2019-03-24T23:20:02.470Z,6.93
2019-03-24T23:22:31.788Z,6.71
2019-03-24T23:25:00.360Z,6.51
2019-03-24T23:27:29.114Z,6.43
2019-03-24T23:29:57.632Z,6.41
2019-03-24T23:32:26.194Z,6.55
2019-03-24T23:34:54.825Z,6.70
2019-03-24T23:37:23.382Z,6.79
2019-03-24T23:39:51.959Z,6.83
2019-03-24T23:42:20.480Z,6.82
2019-03-24T23:44:49.110Z,6.85
2019-03-24T23:47:17.743Z,7.10
2019-03-24T23:49:46.378Z,7.02
2019-03-24T23:52:14.925Z,6.77
2019-03-24T23:54:43.439Z,6.49
2019-03-24T23:57:12.092Z,6.40
2019-03-24T23:59:40.730Z,6.37
